Aviation Digital Data Service (ADDS)

Output produced by METARs form (2056 UTC 29 May 2017)
found at http://www.aviationweather.gov/adds/metars/
 
TJBQ 292045Z 2921/3018 08015KT P6SM VCTS SCT022CB BKN040 OVC070 
     TEMPO 2921/2923 VRB15G25KT 5SM TSRA SCT012CB BKN025 OVC050 
     FM292300 11005KT P6SM SCT060 
     FM301400 08010KT P6SM SCT025 SCT050 AMD NOT SKED 3002/3011
       
TJMZ 291846Z 2919/3018 VRB10KT P6SM VCTS SCT020CB BKN040 
     TEMPO 2919/2923 5SM -TSRA SCT015CB BKN025 OVC060 
     FM292300 VRB06KT P6SM FEW060 
     FM301400 VRB10KT P6SM VCSH SCT025 SCT050 AMD NOT SKED
       
TJPS 291732Z 2918/3018 13010KT P6SM VCSH SCT025 BKN050 
     FM292300 05005KT P6SM FEW060 
     FM301400 13010KT P6SM VCSH SCT025 SCT050 AMD NOT SKED TIL 300300
       
TJSJ 291732Z 2918/3018 08012KT P6SM VCSH SCT030 SCT050 
     TEMPO 2918/2919 VRB10KT 4SM SHRA BKN035 
     FM292300 11005KT P6SM VCSH FEW025 SCT060 
     FM301400 07010KT P6SM VCSH SCT025 SCT050